Time;durP1;ratioP1;P1;durP2;ratioP2;P2;SDS_P1;SDS_P2;PMS_P1;PMS_P2;Temp;Humidity;BMP_temperature;BMP_pressure;BME280_temperature;BME280_humidity;BME280_pressure;Samples;Min_cycle;Max_cycle;Signal;HPM_P1;HPM_P2
2022/06/17 00:00:29;;;;;;;6.25;3.70;;;;;;;;;;4833996;29;20053;-75
2022/06/17 00:02:57;;;;;;;4.40;4.05;;;;;;;;;;4830444;29;20525;-76
2022/06/17 00:05:24;;;;;;;4.10;3.80;;;;;;;;;;4819300;29;20050;-75
2022/06/17 00:07:51;;;;;;;4.50;4.10;;;;;;;;;;4818858;29;20050;-76
2022/06/17 00:10:24;;;;;;;6.22;4.00;;;;;;;;;;4818714;29;20053;-75
2022/06/17 00:12:52;;;;;;;4.28;3.88;;;;;;;;;;4827031;29;20472;-76
2022/06/17 00:15:20;;;;;;;4.28;3.97;;;;;;;;;;4822253;29;20817;-75
2022/06/17 00:17:50;;;;;;;4.28;3.65;;;;;;;;;;4829621;29;20509;-75
2022/06/17 00:20:19;;;;;;;3.80;3.50;;;;;;;;;;4821745;29;20050;-75
2022/06/17 00:22:47;;;;;;;4.13;3.83;;;;;;;;;;4832363;29;20200;-76
2022/06/17 00:25:25;;;;;;;6.15;3.80;;;;;;;;;;4822774;29;20415;-75
2022/06/17 00:27:52;;;;;;;5.10;3.63;;;;;;;;;;4816415;29;20046;-75
2022/06/17 00:30:22;;;;;;;4.22;3.75;;;;;;;;;;4802253;29;20054;-75
2022/06/17 00:32:52;;;;;;;3.65;3.35;;;;;;;;;;4827427;29;20050;-75
2022/06/17 00:35:20;;;;;;;4.03;3.72;;;;;;;;;;4828154;29;20046;-75
2022/06/17 00:37:47;;;;;;;5.05;4.13;;;;;;;;;;4818565;29;20433;-76
2022/06/17 00:40:19;;;;;;;4.38;4.07;;;;;;;;;;4817023;29;20054;-76
2022/06/17 00:42:48;;;;;;;4.25;3.80;;;;;;;;;;4817806;29;20074;-76
2022/06/17 00:45:24;;;;;;;4.47;4.07;;;;;;;;;;4817894;29;20074;-75
2022/06/17 00:47:56;;;;;;;5.07;4.00;;;;;;;;;;4822541;29;20117;-76
2022/06/17 00:50:44;;;;;;;4.05;3.70;;;;;;;;;;4821678;29;20057;-74
2022/06/17 00:53:18;;;;;;;5.25;3.75;;;;;;;;;;4818883;29;20042;-75
2022/06/17 00:56:01;;;;;;;4.10;3.72;;;;;;;;;;4817781;29;20049;-75
2022/06/17 00:59:04;;;;;;;3.65;3.45;;;;;;;;;;4823459;29;20417;-76
2022/06/17 01:01:41;;;;;;;3.88;3.55;;;;;;;;;;4791955;29;20154;-75
2022/06/17 01:04:11;;;;;;;5.18;4.03;;;;;;;;;;4805564;29;20138;-76
2022/06/17 01:06:41;;;;;;;4.30;3.90;;;;;;;;;;4819957;29;20159;-75
2022/06/17 01:12:00;;;;;;;3.92;3.63;;;;;;;;;;4817283;29;20046;-75
2022/06/17 01:14:29;;;;;;;5.22;3.95;;;;;;;;;;4817654;29;20050;-75
2022/06/17 01:16:57;;;;;;;4.88;4.00;;;;;;;;;;4816016;29;20039;-75
2022/06/17 01:19:35;;;;;;;4.13;3.80;;;;;;;;;;4805476;29;20139;-75
2022/06/17 01:22:22;;;;;;;4.20;3.90;;;;;;;;;;4820031;29;20050;-75
2022/06/17 01:24:51;;;;;;;4.60;4.20;;;;;;;;;;4826102;29;20496;-75
2022/06/17 01:27:20;;;;;;;3.78;3.58;;;;;;;;;;4806417;29;20146;-75
2022/06/17 01:29:48;;;;;;;3.88;3.58;;;;;;;;;;4832668;29;20046;-75
2022/06/17 01:32:17;;;;;;;4.13;3.72;;;;;;;;;;4818506;29;20050;-75
2022/06/17 01:34:45;;;;;;;4.32;3.70;;;;;;;;;;4818443;29;20452;-75
2022/06/17 01:37:12;;;;;;;4.53;4.13;;;;;;;;;;4815929;29;20095;-75
2022/06/17 01:39:41;;;;;;;5.20;4.25;;;;;;;;;;4802971;29;20034;-75
2022/06/17 01:42:12;;;;;;;4.18;3.78;;;;;;;;;;4814805;29;20134;-75
2022/06/17 01:44:41;;;;;;;3.85;3.55;;;;;;;;;;4817739;29;20043;-75
2022/06/17 01:47:15;;;;;;;4.28;3.88;;;;;;;;;;4815785;29;20517;-75
2022/06/17 01:49:50;;;;;;;4.00;3.60;;;;;;;;;;4805674;29;20504;-75
2022/06/17 01:52:20;;;;;;;4.65;3.60;;;;;;;;;;4816585;29;20046;-75
2022/06/17 01:54:50;;;;;;;4.35;3.88;;;;;;;;;;4816744;29;20043;-75
2022/06/17 01:57:21;;;;;;;4.57;3.47;;;;;;;;;;4816671;29;20466;-75
2022/06/17 01:59:52;;;;;;;4.43;4.00;;;;;;;;;;4815459;29;20122;-76
2022/06/17 02:02:22;;;;;;;4.20;3.90;;;;;;;;;;4801325;29;20146;-76
2022/06/17 02:04:54;;;;;;;5.22;3.30;;;;;;;;;;4808072;29;20487;-76
2022/06/17 02:07:24;;;;;;;4.40;3.95;;;;;;;;;;4817358;29;20054;-77
2022/06/17 02:09:53;;;;;;;6.70;3.90;;;;;;;;;;4815174;29;20393;-76
2022/06/17 02:12:22;;;;;;;5.32;3.97;;;;;;;;;;4806512;29;20056;-76
2022/06/17 02:14:56;;;;;;;5.32;4.30;;;;;;;;;;4818870;29;20054;-76
2022/06/17 02:17:50;;;;;;;12.80;7.35;;;;;;;;;;4799865;29;20062;-76
2022/06/17 02:20:27;;;;;;;13.13;8.35;;;;;;;;;;4808285;29;20042;-76
2022/06/17 02:23:01;;;;;;;10.52;6.68;;;;;;;;;;4806393;29;20121;-76
2022/06/17 02:25:31;;;;;;;8.82;6.68;;;;;;;;;;4819837;29;20400;-76
2022/06/17 02:28:00;;;;;;;10.27;6.70;;;;;;;;;;4822200;29;20050;-76
2022/06/17 02:30:29;;;;;;;15.55;9.00;;;;;;;;;;4821786;29;20532;-76
2022/06/17 02:33:02;;;;;;;16.48;9.63;;;;;;;;;;4818693;29;20057;-76
2022/06/17 02:35:38;;;;;;;20.08;11.30;;;;;;;;;;4804298;29;20059;-76
2022/06/17 02:38:06;;;;;;;16.92;10.73;;;;;;;;;;4780537;29;20043;-76
2022/06/17 02:40:39;;;;;;;15.80;10.35;;;;;;;;;;4792684;29;20099;-76
2022/06/17 02:43:12;;;;;;;19.70;10.50;;;;;;;;;;4812296;29;20048;-76
2022/06/17 02:45:42;;;;;;;18.30;9.40;;;;;;;;;;4799729;29;20050;-76
2022/06/17 02:48:22;;;;;;;13.95;9.80;;;;;;;;;;4800899;29;20382;-76
2022/06/17 02:50:50;;;;;;;13.02;8.48;;;;;;;;;;4817849;29;20046;-76
2022/06/17 02:53:20;;;;;;;13.57;9.15;;;;;;;;;;4816519;29;20046;-76
2022/06/17 02:55:48;;;;;;;14.85;9.10;;;;;;;;;;4815407;29;20125;-76
2022/06/17 02:58:29;;;;;;;18.67;9.93;;;;;;;;;;4814268;29;20057;-76
2022/06/17 03:00:57;;;;;;;11.82;8.57;;;;;;;;;;4816102;29;20048;-76
2022/06/17 03:03:26;;;;;;;12.32;8.18;;;;;;;;;;4814844;29;20042;-76
2022/06/17 03:05:55;;;;;;;13.95;9.00;;;;;;;;;;4820770;29;20038;-76
2022/06/17 03:08:24;;;;;;;11.95;8.65;;;;;;;;;;4799940;29;20050;-75
2022/06/17 03:10:56;;;;;;;13.05;8.52;;;;;;;;;;4801066;29;20125;-75
2022/06/17 03:13:29;;;;;;;12.57;8.30;;;;;;;;;;4817070;29;20050;-76
2022/06/17 03:15:59;;;;;;;12.35;7.10;;;;;;;;;;4821584;29;20047;-75
2022/06/17 03:18:28;;;;;;;13.25;8.70;;;;;;;;;;4807067;29;20072;-75
2022/06/17 03:20:56;;;;;;;12.15;8.25;;;;;;;;;;4798444;29;20038;-75
2022/06/17 03:23:25;;;;;;;12.18;7.70;;;;;;;;;;4818544;29;20125;-75
2022/06/17 03:25:52;;;;;;;14.85;8.35;;;;;;;;;;4799099;29;20449;-75
2022/06/17 03:28:27;;;;;;;11.13;8.20;;;;;;;;;;4816099;29;20073;-75
2022/06/17 03:31:02;;;;;;;9.25;7.65;;;;;;;;;;4801020;29;20426;-76
2022/06/17 03:33:38;;;;;;;11.57;7.07;;;;;;;;;;4800956;29;20069;-75
2022/06/17 03:36:10;;;;;;;10.25;6.47;;;;;;;;;;4811016;29;20058;-76
2022/06/17 03:38:44;;;;;;;9.45;6.65;;;;;;;;;;4814672;29;20045;-76
2022/06/17 03:41:31;;;;;;;8.95;6.60;;;;;;;;;;4820044;29;20050;-76
2022/06/17 03:44:18;;;;;;;9.13;6.55;;;;;;;;;;4801346;29;20612;-76
2022/06/17 03:46:54;;;;;;;9.68;6.10;;;;;;;;;;4804909;29;20054;-76
2022/06/17 03:49:30;;;;;;;10.02;5.45;;;;;;;;;;4803656;29;20062;-76
2022/06/17 03:52:00;;;;;;;5.82;5.32;;;;;;;;;;4813072;29;20053;-75
2022/06/17 03:54:28;;;;;;;9.73;5.47;;;;;;;;;;4796682;29;20527;-75
2022/06/17 03:56:56;;;;;;;9.05;5.47;;;;;;;;;;4795538;29;20479;-75
2022/06/17 03:59:27;;;;;;;6.43;5.75;;;;;;;;;;4783829;29;20122;-76
2022/06/17 04:01:59;;;;;;;6.15;5.25;;;;;;;;;;4793765;29;20504;-76
2022/06/17 04:04:29;;;;;;;5.72;5.22;;;;;;;;;;4805077;29;20046;-76
2022/06/17 04:07:00;;;;;;;7.78;4.65;;;;;;;;;;4820668;29;20455;-75
2022/06/17 04:09:39;;;;;;;5.70;4.85;;;;;;;;;;4785732;29;20465;-75
2022/06/17 04:12:13;;;;;;;7.40;5.10;;;;;;;;;;4802514;29;20070;-76
2022/06/17 04:15:07;;;;;;;6.10;5.30;;;;;;;;;;4838955;24;20053;-77
2022/06/17 04:17:40;;;;;;;6.15;5.45;;;;;;;;;;4798760;29;20057;-78
2022/06/17 04:20:20;;;;;;;5.13;4.50;;;;;;;;;;4813377;29;20050;-77
2022/06/17 04:22:49;;;;;;;6.00;4.72;;;;;;;;;;4802690;29;20046;-77
2022/06/17 04:25:48;;;;;;;6.67;4.60;;;;;;;;;;4790649;29;20050;-77
2022/06/17 04:28:19;;;;;;;10.02;4.88;;;;;;;;;;4814121;29;20080;-77
2022/06/17 04:30:51;;;;;;;6.60;4.35;;;;;;;;;;4786774;29;20053;-78
2022/06/17 04:33:24;;;;;;;5.70;4.45;;;;;;;;;;4807406;29;20069;-78
2022/06/17 04:35:53;;;;;;;4.40;4.00;;;;;;;;;;4792564;29;20053;-77
2022/06/17 04:38:21;;;;;;;5.18;4.70;;;;;;;;;;4809531;29;20129;-77
2022/06/17 04:41:16;;;;;;;6.32;4.60;;;;;;;;;;4818261;29;20094;-77
2022/06/17 04:43:58;;;;;;;7.40;5.63;;;;;;;;;;4801879;29;20047;-78
2022/06/17 04:46:33;;;;;;;5.25;4.60;;;;;;;;;;4805350;29;20052;-77
2022/06/17 04:49:01;;;;;;;5.47;4.97;;;;;;;;;;4786445;29;20174;-78
2022/06/17 04:51:32;;;;;;;4.70;4.30;;;;;;;;;;4798571;29;20546;-77
2022/06/17 04:54:04;;;;;;;4.65;4.25;;;;;;;;;;4822857;29;21251;-78
2022/06/17 04:56:55;;;;;;;6.15;4.50;;;;;;;;;;4800695;29;20061;-77
2022/06/17 04:59:30;;;;;;;5.15;4.65;;;;;;;;;;4820201;29;20049;-78
2022/06/17 05:01:59;;;;;;;4.28;3.88;;;;;;;;;;4789502;29;20046;-77
2022/06/17 05:04:42;;;;;;;5.13;4.63;;;;;;;;;;4807728;29;20046;-78
2022/06/17 05:07:11;;;;;;;8.35;5.00;;;;;;;;;;4825216;29;20099;-78
2022/06/17 05:09:43;;;;;;;6.95;4.70;;;;;;;;;;4828909;29;20124;-77
2022/06/17 05:12:22;;;;;;;4.30;4.00;;;;;;;;;;4791429;29;20053;-77
2022/06/17 05:14:59;;;;;;;6.68;4.35;;;;;;;;;;4815650;29;20093;-77
2022/06/17 05:17:27;;;;;;;4.90;4.50;;;;;;;;;;4804109;29;20044;-77
2022/06/17 05:19:54;;;;;;;4.85;4.45;;;;;;;;;;4799194;29;20044;-78
2022/06/17 05:22:30;;;;;;;4.65;4.28;;;;;;;;;;4817260;29;20050;-78
2022/06/17 05:24:59;;;;;;;4.95;4.45;;;;;;;;;;4819022;29;20052;-77
2022/06/17 05:27:27;;;;;;;4.70;4.40;;;;;;;;;;4807330;29;20078;-77
2022/06/17 05:29:55;;;;;;;5.18;4.60;;;;;;;;;;4824361;29;20046;-77
2022/06/17 05:32:26;;;;;;;4.73;4.37;;;;;;;;;;4806571;29;20049;-78
2022/06/17 05:34:53;;;;;;;5.97;4.43;;;;;;;;;;4788168;29;20085;-78
2022/06/17 05:37:21;;;;;;;7.63;4.95;;;;;;;;;;4809005;29;20445;-78
2022/06/17 05:39:54;;;;;;;5.05;4.53;;;;;;;;;;4807080;29;20410;-78
2022/06/17 05:42:22;;;;;;;6.88;4.72;;;;;;;;;;4816568;29;20051;-79
2022/06/17 05:44:49;;;;;;;5.65;4.95;;;;;;;;;;4796798;29;20070;-77
2022/06/17 05:47:28;;;;;;;5.38;4.97;;;;;;;;;;4790317;29;20054;-78
2022/06/17 05:50:15;;;;;;;4.65;4.25;;;;;;;;;;4800760;29;20086;-79
2022/06/17 05:53:26;;;;;;;5.37;4.87;;;;;;;;;;4794552;29;20516;-78
2022/06/17 05:55:56;;;;;;;4.72;4.38;;;;;;;;;;4785274;29;20063;-77
2022/06/17 05:58:24;;;;;;;5.00;4.07;;;;;;;;;;4780955;29;20056;-77
2022/06/17 06:01:19;;;;;;;9.15;4.40;;;;;;;;;;4782875;29;20156;-79
2022/06/17 06:03:47;;;;;;;4.43;4.03;;;;;;;;;;4808771;29;20089;-78
2022/06/17 06:06:15;;;;;;;5.00;3.85;;;;;;;;;;4817863;29;20418;-77
2022/06/17 06:08:45;;;;;;;5.05;3.97;;;;;;;;;;4804467;29;20046;-79
2022/06/17 06:11:13;;;;;;;4.10;3.80;;;;;;;;;;4806932;29;20106;-78
2022/06/17 06:13:44;;;;;;;4.70;3.95;;;;;;;;;;4798124;29;20084;-77
2022/06/17 06:16:15;;;;;;;4.00;3.70;;;;;;;;;;4785292;29;20049;-78
2022/06/17 06:18:47;;;;;;;4.25;3.67;;;;;;;;;;4787434;29;20070;-77
2022/06/17 06:21:18;;;;;;;7.55;4.28;;;;;;;;;;4801397;29;20055;-78
2022/06/17 06:23:47;;;;;;;4.85;3.92;;;;;;;;;;4797164;29;20043;-78
2022/06/17 06:26:26;;;;;;;4.25;3.80;;;;;;;;;;4799635;29;20102;-77
2022/06/17 06:29:16;;;;;;;5.57;4.00;;;;;;;;;;4790904;29;20051;-77
2022/06/17 06:31:45;;;;;;;4.05;3.75;;;;;;;;;;4811451;29;20586;-77
2022/06/17 06:34:24;;;;;;;4.50;4.10;;;;;;;;;;4794915;29;20063;-78
2022/06/17 06:36:52;;;;;;;4.25;3.95;;;;;;;;;;4796532;29;20048;-77
2022/06/17 06:39:20;;;;;;;5.10;4.60;;;;;;;;;;4805904;29;20057;-77
2022/06/17 06:41:51;;;;;;;5.55;4.25;;;;;;;;;;4812811;29;20053;-78
2022/06/17 06:44:19;;;;;;;4.40;3.45;;;;;;;;;;4789800;29;20061;-77
2022/06/17 06:47:22;;;;;;;3.95;3.42;;;;;;;;;;4799640;29;20059;-78
2022/06/17 06:50:00;;;;;;;7.90;3.67;;;;;;;;;;4796520;29;20492;-77
2022/06/17 06:52:27;;;;;;;9.05;3.80;;;;;;;;;;4794193;29;20514;-77
2022/06/17 06:54:55;;;;;;;4.18;3.60;;;;;;;;;;4784256;29;20066;-76
2022/06/17 06:57:22;;;;;;;7.07;3.22;;;;;;;;;;4795923;29;20055;-79
2022/06/17 07:00:06;;;;;;;3.60;3.40;;;;;;;;;;4810633;29;20042;-77
2022/06/17 07:02:34;;;;;;;4.43;3.10;;;;;;;;;;4784969;29;20156;-77
2022/06/17 07:05:02;;;;;;;3.78;3.40;;;;;;;;;;4793760;29;20039;-77
2022/06/17 07:07:37;;;;;;;4.30;3.25;;;;;;;;;;4799093;29;20047;-77
2022/06/17 07:10:05;;;;;;;3.30;3.00;;;;;;;;;;4783639;29;20055;-77
2022/06/17 07:12:32;;;;;;;3.78;3.08;;;;;;;;;;4783496;29;20392;-78
2022/06/17 07:15:00;;;;;;;4.00;3.10;;;;;;;;;;4803541;29;20050;-78
2022/06/17 07:17:27;;;;;;;4.18;3.20;;;;;;;;;;4799349;29;20050;-77
2022/06/17 07:19:54;;;;;;;4.13;2.80;;;;;;;;;;4800113;29;20056;-78
2022/06/17 07:22:22;;;;;;;3.83;3.20;;;;;;;;;;4815998;29;20133;-78
2022/06/17 07:24:50;;;;;;;3.20;2.90;;;;;;;;;;4800099;29;20047;-77
2022/06/17 07:27:18;;;;;;;6.13;2.92;;;;;;;;;;4816262;29;20142;-78
2022/06/17 07:29:45;;;;;;;2.80;2.60;;;;;;;;;;4799455;29;20042;-78
2022/06/17 07:32:13;;;;;;;3.53;2.95;;;;;;;;;;4798230;29;20458;-78
2022/06/17 07:34:41;;;;;;;4.38;2.92;;;;;;;;;;4799004;29;20396;-79
2022/06/17 07:39:58;;;;;;;3.08;2.70;;;;;;;;;;4789139;29;20583;-78
2022/06/17 07:42:27;;;;;;;3.10;2.80;;;;;;;;;;4804317;29;20046;-79
2022/06/17 07:44:54;;;;;;;3.35;2.55;;;;;;;;;;4788762;29;20050;-78
2022/06/17 07:47:23;;;;;;;2.60;2.40;;;;;;;;;;4799954;29;20061;-79
2022/06/17 07:49:50;;;;;;;3.22;2.38;;;;;;;;;;4818710;29;20046;-78
2022/06/17 07:52:18;;;;;;;2.80;2.50;;;;;;;;;;4816649;29;20058;-79
2022/06/17 07:54:48;;;;;;;3.28;2.88;;;;;;;;;;4797340;29;20042;-79
2022/06/17 07:57:16;;;;;;;4.60;2.55;;;;;;;;;;4814234;29;20054;-78
2022/06/17 07:59:44;;;;;;;3.00;2.42;;;;;;;;;;4817683;29;20138;-78
2022/06/17 08:02:11;;;;;;;5.95;2.70;;;;;;;;;;4820729;29;20420;-78
2022/06/17 08:04:41;;;;;;;6.30;2.90;;;;;;;;;;4803345;29;20042;-79
2022/06/17 08:07:10;;;;;;;5.90;2.65;;;;;;;;;;4802772;29;20782;-78
2022/06/17 08:09:37;;;;;;;3.58;2.42;;;;;;;;;;4816867;29;20046;-78
2022/06/17 08:12:08;;;;;;;4.32;2.92;;;;;;;;;;4802546;29;20115;-78
2022/06/17 08:14:35;;;;;;;3.47;2.50;;;;;;;;;;4798874;29;20047;-78
2022/06/17 08:17:03;;;;;;;3.85;2.42;;;;;;;;;;4796718;29;20508;-77
2022/06/17 08:19:30;;;;;;;5.68;2.30;;;;;;;;;;4815303;29;20188;-78
2022/06/17 08:21:59;;;;;;;2.53;2.10;;;;;;;;;;4808314;29;20043;-77
2022/06/17 08:24:26;;;;;;;3.92;2.53;;;;;;;;;;4800071;29;20042;-77
2022/06/17 08:26:54;;;;;;;4.10;2.20;;;;;;;;;;4815436;29;20502;-78
2022/06/17 08:29:22;;;;;;;2.97;2.47;;;;;;;;;;4818578;29;20054;-77
2022/06/17 08:34:56;;;;;;;4.32;2.17;;;;;;;;;;4819899;29;20046;-77
2022/06/17 08:37:23;;;;;;;5.28;2.20;;;;;;;;;;4787013;29;20053;-77
2022/06/17 08:39:51;;;;;;;3.53;1.92;;;;;;;;;;4800864;29;20100;-77
2022/06/17 08:42:40;;;;;;;4.35;2.40;;;;;;;;;;4816675;29;20042;-77
2022/06/17 08:45:13;;;;;;;7.38;2.53;;;;;;;;;;4802862;29;20465;-76
2022/06/17 08:48:02;;;;;;;2.40;2.20;;;;;;;;;;4818265;29;20069;-77
2022/06/17 08:50:38;;;;;;;4.35;2.30;;;;;;;;;;4817639;29;20502;-77
2022/06/17 08:53:08;;;;;;;5.60;2.35;;;;;;;;;;4799796;29;20066;-77
2022/06/17 08:55:45;;;;;;;2.53;2.28;;;;;;;;;;4784989;29;20458;-76
2022/06/17 08:58:25;;;;;;;2.50;2.28;;;;;;;;;;4801141;29;20045;-76
2022/06/17 09:00:56;;;;;;;2.38;1.77;;;;;;;;;;4819397;29;20046;-76
2022/06/17 09:03:29;;;;;;;2.65;2.20;;;;;;;;;;4800962;29;20520;-76
2022/06/17 09:06:04;;;;;;;2.67;2.40;;;;;;;;;;4815350;29;20038;-77
2022/06/17 09:08:43;;;;;;;3.78;2.63;;;;;;;;;;4799275;29;20538;-76
2022/06/17 09:11:13;;;;;;;5.57;2.65;;;;;;;;;;4818394;29;20077;-77
2022/06/17 09:13:41;;;;;;;2.95;2.28;;;;;;;;;;4816287;29;20688;-77
2022/06/17 09:16:21;;;;;;;2.60;2.40;;;;;;;;;;4816526;29;20074;-76
2022/06/17 09:18:55;;;;;;;5.03;2.30;;;;;;;;;;4800039;29;20052;-77
2022/06/17 09:21:43;;;;;;;5.38;2.33;;;;;;;;;;4814076;29;20473;-77
2022/06/17 09:24:13;;;;;;;2.58;2.35;;;;;;;;;;4815166;29;20461;-77
2022/06/17 09:26:47;;;;;;;3.72;2.20;;;;;;;;;;4808497;29;20083;-78
2022/06/17 09:29:26;;;;;;;5.07;2.10;;;;;;;;;;4796562;29;20495;-78
2022/06/17 09:31:59;;;;;;;2.20;2.03;;;;;;;;;;4793798;29;20149;-77
2022/06/17 09:34:44;;;;;;;4.47;2.22;;;;;;;;;;4814489;29;20042;-77
2022/06/17 09:37:16;;;;;;;2.08;1.98;;;;;;;;;;4800909;29;20208;-78
2022/06/17 09:39:47;;;;;;;2.53;2.33;;;;;;;;;;4800097;29;20035;-77
2022/06/17 09:42:24;;;;;;;4.20;2.30;;;;;;;;;;4817063;29;20125;-78
2022/06/17 09:44:56;;;;;;;4.20;2.30;;;;;;;;;;4814919;29;20042;-77
2022/06/17 09:47:34;;;;;;;3.38;2.22;;;;;;;;;;4796015;29;20114;-76
2022/06/17 09:50:07;;;;;;;3.50;2.00;;;;;;;;;;4798308;29;20055;-77
2022/06/17 09:52:40;;;;;;;4.00;3.08;;;;;;;;;;4792779;29;20054;-78
2022/06/17 09:55:16;;;;;;;3.38;2.00;;;;;;;;;;4815156;29;20523;-78
2022/06/17 09:57:58;;;;;;;1.98;1.85;;;;;;;;;;4815331;29;20043;-76
2022/06/17 10:00:36;;;;;;;2.25;2.05;;;;;;;;;;4815111;29;20780;-77
2022/06/17 10:03:16;;;;;;;5.18;2.45;;;;;;;;;;4814114;29;20129;-78
2022/06/17 10:05:52;;;;;;;3.77;2.30;;;;;;;;;;4810789;29;20141;-77
2022/06/17 10:08:28;;;;;;;2.70;2.20;;;;;;;;;;4812210;29;20653;-79
2022/06/17 10:10:59;;;;;;;2.35;2.22;;;;;;;;;;4813413;29;20042;-77
2022/06/17 10:13:32;;;;;;;3.17;2.40;;;;;;;;;;4798590;29;20054;-79
2022/06/17 10:19:28;;;;;;;5.30;2.30;;;;;;;;;;4811536;29;20054;-77
2022/06/17 10:21:59;;;;;;;3.22;2.25;;;;;;;;;;4812791;29;20050;-77
2022/06/17 10:24:29;;;;;;;3.33;2.10;;;;;;;;;;4772975;29;20058;-78
2022/06/17 10:27:06;;;;;;;2.53;2.10;;;;;;;;;;4798890;29;20134;-77
2022/06/17 10:29:39;;;;;;;5.45;2.00;;;;;;;;;;4799685;29;20050;-77
2022/06/17 10:32:07;;;;;;;2.45;2.10;;;;;;;;;;4800623;29;20463;-78
2022/06/17 10:34:54;;;;;;;2.70;2.13;;;;;;;;;;4799184;29;20056;-77
2022/06/17 10:37:22;;;;;;;2.92;2.08;;;;;;;;;;4796720;29;20046;-79
2022/06/17 10:40:10;;;;;;;3.08;2.20;;;;;;;;;;4815931;29;20411;-77
2022/06/17 10:42:37;;;;;;;2.17;1.95;;;;;;;;;;4815496;29;20129;-78
2022/06/17 10:45:10;;;;;;;2.50;2.10;;;;;;;;;;4813965;29;20126;-77
2022/06/17 10:47:46;;;;;;;3.67;2.45;;;;;;;;;;4812635;29;20103;-78
2022/06/17 10:50:18;;;;;;;4.03;2.20;;;;;;;;;;4814621;29;20046;-78
2022/06/17 10:52:55;;;;;;;3.65;2.30;;;;;;;;;;4796436;29;20299;-78
2022/06/17 10:55:30;;;;;;;11.07;2.28;;;;;;;;;;4792587;29;20054;-74
2022/06/17 10:58:12;;;;;;;2.35;2.10;;;;;;;;;;4813304;29;20475;-78
2022/06/17 11:01:03;;;;;;;2.78;1.92;;;;;;;;;;4798501;29;20099;-78
2022/06/17 11:03:33;;;;;;;2.60;2.08;;;;;;;;;;4810094;29;20531;-77
2022/06/17 11:06:00;;;;;;;5.28;1.90;;;;;;;;;;4775647;29;20046;-78
2022/06/17 11:08:33;;;;;;;5.28;1.65;;;;;;;;;;4812968;29;20129;-77
2022/06/17 11:12:02;;;;;;;8.80;2.03;;;;;;;;;;4811771;29;20049;-78
2022/06/17 11:13:50;;;;;;;2.80;1.80;;;;;;;;;;4794916;29;20530;-77
2022/06/17 11:16:21;;;;;;;3.53;1.83;;;;;;;;;;4817057;29;20050;-75
2022/06/17 11:18:56;;;;;;;2.35;1.65;;;;;;;;;;4815396;29;20054;-75
2022/06/17 11:21:26;;;;;;;3.22;1.50;;;;;;;;;;4818506;29;20046;-76
2022/06/17 11:23:55;;;;;;;1.60;1.50;;;;;;;;;;4816221;29;20054;-77
2022/06/17 11:26:26;;;;;;;1.55;1.42;;;;;;;;;;4814865;29;20133;-76
2022/06/17 11:28:55;;;;;;;2.03;1.60;;;;;;;;;;4815440;29;20053;-76
2022/06/17 11:31:26;;;;;;;2.15;1.38;;;;;;;;;;4801064;29;20185;-77
2022/06/17 11:33:53;;;;;;;2.58;2.20;;;;;;;;;;4799905;29;20055;-78
2022/06/17 11:36:26;;;;;;;2.80;1.60;;;;;;;;;;4815561;29;20257;-79
2022/06/17 11:38:53;;;;;;;4.05;1.40;;;;;;;;;;4805053;29;20130;-76
2022/06/17 11:41:27;;;;;;;1.95;1.40;;;;;;;;;;4796489;29;20073;-76
2022/06/17 11:43:56;;;;;;;2.25;1.70;;;;;;;;;;4816835;29;20046;-77
2022/06/17 11:46:29;;;;;;;4.47;1.50;;;;;;;;;;4811602;29;20487;-77
2022/06/17 11:49:32;;;;;;;1.42;1.30;;;;;;;;;;4807685;29;20034;-77
2022/06/17 11:52:01;;;;;;;2.45;1.58;;;;;;;;;;4794491;29;20137;-76
2022/06/17 11:54:32;;;;;;;3.65;1.50;;;;;;;;;;4811080;29;20043;-77
2022/06/17 11:57:00;;;;;;;2.80;1.30;;;;;;;;;;4815136;29;20042;-78
2022/06/17 11:59:30;;;;;;;2.63;1.70;;;;;;;;;;4794287;29;20046;-77
2022/06/17 12:01:57;;;;;;;1.57;1.47;;;;;;;;;;4802384;29;20039;-77
2022/06/17 12:04:40;;;;;;;1.65;1.55;;;;;;;;;;4823449;29;20075;-78
2022/06/17 12:07:26;;;;;;;1.40;1.30;;;;;;;;;;4821428;29;20142;-78
2022/06/17 12:09:57;;;;;;;1.70;1.60;;;;;;;;;;4803529;29;20410;-77
2022/06/17 12:12:25;;;;;;;3.08;1.48;;;;;;;;;;4792139;29;20474;-77
2022/06/17 12:14:55;;;;;;;2.15;1.52;;;;;;;;;;4803894;29;20126;-78
2022/06/17 12:17:23;;;;;;;3.72;1.80;;;;;;;;;;4816726;29;20137;-76
2022/06/17 12:19:53;;;;;;;1.88;1.30;;;;;;;;;;4808626;29;20154;-76
2022/06/17 12:22:37;;;;;;;2.50;1.30;;;;;;;;;;4806641;29;20484;-78
2022/06/17 12:25:04;;;;;;;2.33;1.42;;;;;;;;;;4813365;29;20122;-78
2022/06/17 12:27:44;;;;;;;1.90;1.50;;;;;;;;;;4813244;29;20129;-77
2022/06/17 12:30:51;;;;;;;3.22;1.80;;;;;;;;;;4796200;29;20101;-77
2022/06/17 12:33:28;;;;;;;2.42;1.40;;;;;;;;;;4821534;29;20062;-78
2022/06/17 12:36:04;;;;;;;4.50;1.60;;;;;;;;;;4823312;29;20065;-77
2022/06/17 12:38:48;;;;;;;1.40;1.30;;;;;;;;;;4806511;29;20051;-77
2022/06/17 12:41:32;;;;;;;2.83;1.48;;;;;;;;;;4799073;29;20556;-77
2022/06/17 12:44:23;;;;;;;2.05;1.65;;;;;;;;;;4799549;29;20047;-77
2022/06/17 12:46:57;;;;;;;2.25;1.38;;;;;;;;;;4809178;29;20122;-77
2022/06/17 12:55:29;;;;;;;3.85;1.30;;;;;;;;;;4789917;29;20053;-77
2022/06/17 12:58:10;;;;;;;2.22;1.48;;;;;;;;;;4789704;29;20050;-78
2022/06/17 13:00:41;;;;;;;1.30;1.20;;;;;;;;;;4806653;29;20544;-80
2022/06/17 13:03:17;;;;;;;1.58;1.20;;;;;;;;;;4814125;29;20050;-78
2022/06/17 13:05:45;;;;;;;2.65;1.80;;;;;;;;;;4818050;29;21309;-79
2022/06/17 13:08:32;;;;;;;5.32;1.75;;;;;;;;;;4813263;29;20058;-77
2022/06/17 13:11:10;;;;;;;2.05;1.50;;;;;;;;;;4799696;29;20148;-77
2022/06/17 13:13:44;;;;;;;2.17;1.40;;;;;;;;;;4803999;29;20050;-78
2022/06/17 13:16:17;;;;;;;1.65;1.48;;;;;;;;;;4818729;29;20587;-77
2022/06/17 13:18:49;;;;;;;3.70;1.65;;;;;;;;;;4800850;29;20042;-77
2022/06/17 13:21:19;;;;;;;4.93;1.63;;;;;;;;;;4818732;29;20046;-77
2022/06/17 13:23:47;;;;;;;;;;;;;;;;;;4796070;29;20518;-77
2022/06/17 13:26:17;;;;;;;4.70;1.65;;;;;;;;;;4815119;29;19935;-77
2022/06/17 13:29:08;;;;;;;4.35;1.40;;;;;;;;;;4815648;29;20538;-77
2022/06/17 13:31:49;;;;;;;1.20;1.10;;;;;;;;;;4806898;29;20596;-77
2022/06/17 13:34:24;;;;;;;2.95;1.23;;;;;;;;;;4815632;29;20141;-77
2022/06/17 13:37:02;;;;;;;1.67;1.20;;;;;;;;;;4815186;29;20291;-77
2022/06/17 13:39:31;;;;;;;3.42;1.27;;;;;;;;;;4814699;29;20409;-77
2022/06/17 13:42:01;;;;;;;3.38;1.42;;;;;;;;;;4813151;29;20288;-77
2022/06/17 13:44:31;;;;;;;1.60;1.30;;;;;;;;;;4815206;29;20042;-76
2022/06/17 13:47:04;;;;;;;8.43;1.60;;;;;;;;;;4812622;29;20052;-77
2022/06/17 13:49:46;;;;;;;1.42;1.13;;;;;;;;;;4800801;29;20057;-78
2022/06/17 13:52:27;;;;;;;3.03;1.23;;;;;;;;;;4815110;29;20058;-77
2022/06/17 13:54:57;;;;;;;2.33;1.50;;;;;;;;;;4818167;29;20134;-77
2022/06/17 13:57:47;;;;;;;4.80;1.48;;;;;;;;;;4811305;29;20147;-77
2022/06/17 14:00:21;;;;;;;3.88;1.40;;;;;;;;;;4793860;29;20579;-77
2022/06/17 14:02:58;;;;;;;4.93;1.58;;;;;;;;;;4813414;29;20130;-78
2022/06/17 14:05:29;;;;;;;2.20;1.23;;;;;;;;;;4779325;29;20511;-76
2022/06/17 14:07:56;;;;;;;2.10;1.27;;;;;;;;;;4809886;29;20863;-77
2022/06/17 14:10:30;;;;;;;2.40;1.20;;;;;;;;;;4800078;29;20136;-77
2022/06/17 14:12:57;;;;;;;2.17;1.33;;;;;;;;;;4815662;29;20113;-80
2022/06/17 14:15:32;;;;;;;1.90;1.38;;;;;;;;;;4814171;29;20490;-77
2022/06/17 14:18:03;;;;;;;2.67;1.10;;;;;;;;;;4794603;29;20126;-77
2022/06/17 14:20:33;;;;;;;1.92;1.00;;;;;;;;;;4809367;29;20053;-77
2022/06/17 14:23:15;;;;;;;1.55;1.30;;;;;;;;;;4807877;29;20049;-77
2022/06/17 14:25:52;;;;;;;1.48;1.38;;;;;;;;;;4798305;29;20462;-76
2022/06/17 14:28:38;;;;;;;2.00;1.40;;;;;;;;;;4811072;29;20098;-77
2022/06/17 14:31:11;;;;;;;4.68;1.20;;;;;;;;;;4816689;29;20077;-77
2022/06/17 14:33:41;;;;;;;1.48;1.20;;;;;;;;;;4816622;29;20069;-81
2022/06/17 14:36:13;;;;;;;2.83;1.40;;;;;;;;;;4815262;29;20233;-80
2022/06/17 14:38:55;;;;;;;1.20;1.10;;;;;;;;;;4799330;29;20406;-78
2022/06/17 14:44:27;;;;;;;1.60;1.27;;;;;;;;;;4812753;29;20043;-78
2022/06/17 14:47:13;;;;;;;2.05;1.10;;;;;;;;;;4815256;29;20075;-78
2022/06/17 14:49:46;;;;;;;1.95;1.45;;;;;;;;;;4811626;29;20137;-78
2022/06/17 14:52:28;;;;;;;2.53;1.10;;;;;;;;;;4814464;29;20647;-77
2022/06/17 14:55:04;;;;;;;1.70;1.20;;;;;;;;;;4813573;29;20566;-77
2022/06/17 14:57:33;;;;;;;1.40;1.30;;;;;;;;;;4812176;29;20057;-78
2022/06/17 15:00:03;;;;;;;2.45;1.10;;;;;;;;;;4796866;29;20214;-78
2022/06/17 15:02:35;;;;;;;2.17;1.00;;;;;;;;;;4805852;29;20078;-79
2022/06/17 15:05:04;;;;;;;3.20;1.30;;;;;;;;;;4801478;29;20177;-77
2022/06/17 15:07:45;;;;;;;1.58;1.00;;;;;;;;;;4808559;29;20076;-79
2022/06/17 15:10:12;;;;;;;3.28;1.30;;;;;;;;;;4809348;29;20288;-78
2022/06/17 15:12:46;;;;;;;5.50;1.60;;;;;;;;;;4793311;29;20057;-77
2022/06/17 15:15:17;;;;;;;1.33;1.08;;;;;;;;;;4794104;29;20058;-77
2022/06/17 15:17:48;;;;;;;2.78;1.23;;;;;;;;;;4793543;29;21133;-78
2022/06/17 15:20:20;;;;;;;1.58;1.00;;;;;;;;;;4810174;29;20038;-78
2022/06/17 15:23:06;;;;;;;1.63;1.25;;;;;;;;;;4807436;29;20066;-79
2022/06/17 15:25:59;;;;;;;2.78;1.10;;;;;;;;;;4810591;29;20580;-79
2022/06/17 15:28:35;;;;;;;1.33;1.20;;;;;;;;;;4801065;29;20061;-79
2022/06/17 15:31:15;;;;;;;1.75;1.20;;;;;;;;;;4811740;29;21552;-77
2022/06/17 15:33:43;;;;;;;;;;;;;;;;;;4801722;29;20064;-79
2022/06/17 15:36:18;;;;;;;2.72;1.30;;;;;;;;;;4816031;29;19972;-79
2022/06/17 15:39:02;;;;;;;2.05;1.20;;;;;;;;;;4792638;29;20077;-77
2022/06/17 15:41:35;;;;;;;3.38;1.70;;;;;;;;;;4810055;29;20089;-78